ADDS METAR Data INFO
IDs: Format: Raw Decoded Include TAF

Data at: 0110 UTC 21 Oct 2017

KTVI 210055Z AUTO 07003KT 10SM CLR 21/15 A3015 RMK AO2
KTVI 210035Z AUTO 00000KT 10SM CLR 21/15 A3015 RMK AO2
KTVI 210015Z AUTO 00000KT 10SM CLR 22/15 A3015 RMK AO2
KTVI 202355Z AUTO 07003KT 10SM CLR 22/15 A3014 RMK AO2
KTVI 202335Z AUTO 07003KT 10SM CLR 23/15 A3014 RMK AO2
KTVI 202315Z AUTO 09005KT 10SM CLR 25/14 A3014 RMK AO2
KTVI 202255Z AUTO 09005KT 10SM CLR 26/13 A3014 RMK AO2
KTVI 202235Z AUTO 10005KT 10SM CLR 27/13 A3014 RMK AO2
KTVI 202215Z AUTO 09008KT 10SM CLR 27/13 A3013 RMK AO2
KTVI 202155Z AUTO 10008KT 10SM CLR 28/13 A3013 RMK AO2
KTVI 202135Z AUTO 07009KT 10SM CLR 28/13 A3013 RMK AO2
KTVI 202115Z AUTO 09007KT 10SM CLR 28/13 A3014 RMK AO2
KTVI 202055Z AUTO 07006KT 10SM CLR 28/13 A3014 RMK AO2
KTVI 202035Z AUTO 08007KT 10SM CLR 29/12 A3015 RMK AO2
KTVI 202015Z AUTO 10007KT 10SM CLR 29/13 A3015 RMK AO2
KTVI 201955Z AUTO 08008KT 10SM CLR 29/13 A3015 RMK AO2
KTVI 201935Z AUTO 11004KT 10SM CLR 29/12 A3016 RMK AO2
KTVI 201915Z AUTO 07005KT 10SM CLR 29/12 A3016 RMK AO2
KTVI 201855Z AUTO 08007KT 040V100 10SM CLR 28/13 A3017 RMK AO2
KTVI 201835Z AUTO 07009KT 10SM CLR 28/13 A3017 RMK AO2
KTVI 201815Z AUTO 07004KT 10SM CLR 27/14 A3018 RMK AO2
KTVI 201755Z AUTO 06006KT 10SM CLR 27/14 A3019 RMK AO2
KTVI 201735Z AUTO 06008KT 10SM CLR 27/15 A3020 RMK AO2
KTVI 201715Z AUTO 11005KT 10SM CLR 27/16 A3021 RMK AO2
KTVI 201655Z AUTO 12007KT 10SM CLR 27/16 A3022 RMK AO2
KTVI 201635Z AUTO 09006KT 10SM CLR 26/15 A3023 RMK AO2
KTVI 201615Z AUTO 07007KT 10SM CLR 25/15 A3023 RMK AO2
KTVI 201555Z AUTO 08005KT 10SM CLR 25/15 A3024 RMK AO2
KTVI 201535Z AUTO 06008KT 10SM CLR 25/14 A3024 RMK AO2
KTVI 201515Z AUTO 06007KT 10SM CLR 24/14 A3024 RMK AO2
KTVI 201455Z AUTO 08006KT 10SM CLR 23/14 A3025 RMK AO2
KTVI 201435Z AUTO 06006KT 10SM CLR 22/15 A3026 RMK AO2
KTVI 201415Z AUTO 08007KT 10SM CLR 22/15 A3025 RMK AO2
KTVI 201355Z AUTO 06006KT 10SM CLR 20/15 A3024 RMK AO2
KTVI 201335Z AUTO 00000KT 10SM CLR 19/16 A3025 RMK AO2
KTVI 201315Z AUTO 06003KT 10SM CLR 18/15 A3024 RMK AO2
KTVI 201255Z AUTO 00000KT 10SM CLR 17/16 A3024 RMK AO2
KTVI 201235Z AUTO 05004KT 10SM CLR 16/15 A3023 RMK AO2
KTVI 201215Z AUTO 00000KT 10SM CLR 15/15 A3023 RMK AO2
KTVI 201155Z AUTO 03003KT 10SM CLR 15/15 A3022 RMK AO2
KTVI 201135Z AUTO 03003KT 10SM CLR 15/15 A3022 RMK AO2
KTVI 201115Z AUTO 02003KT 10SM CLR 15/15 A3023 RMK AO2
KTVI 201055Z AUTO 00000KT 10SM CLR 13/13 A3023 RMK AO2
KTVI 201035Z AUTO 01003KT 10SM CLR 15/15 A3022 RMK AO2
KTVI 201015Z AUTO 00000KT 10SM CLR 15/15 A3022 RMK AO2
KTVI 200955Z AUTO 00000KT 10SM CLR 15/15 A3021 RMK AO2
KTVI 200935Z AUTO 00000KT 10SM CLR 15/15 A3021 RMK AO2
KTVI 200915Z AUTO 03003KT 10SM CLR 15/15 A3021 RMK AO2
KTVI 200855Z AUTO 00000KT 10SM CLR 14/14 A3021 RMK AO2
KTVI 200835Z AUTO 00000KT 10SM CLR 15/14 A3020 RMK AO2
KTVI 200815Z AUTO 00000KT 10SM CLR 15/15 A3020 RMK AO2
KTVI 200755Z AUTO 00000KT 10SM CLR 15/15 A3020 RMK AO2
KTVI 200735Z AUTO 00000KT 10SM CLR 15/15 A3020 RMK AO2
KTVI 200715Z AUTO 00000KT 10SM CLR 15/15 A3020 RMK AO2
KTVI 200655Z AUTO 00000KT 10SM CLR 15/14 A3020 RMK AO2
KTVI 200635Z AUTO 00000KT 10SM CLR 16/14 A3021 RMK AO2
KTVI 200615Z AUTO 00000KT 10SM CLR 16/14 A3021 RMK AO2
KTVI 200555Z AUTO 00000KT 10SM CLR 17/13 A3021 RMK AO2
KTVI 200535Z AUTO 00000KT 10SM CLR 17/13 A3021 RMK AO2
KTVI 200515Z AUTO 05003KT 10SM CLR 16/14 A3021 RMK AO2
KTVI 200455Z AUTO 05003KT 10SM CLR 17/13 A3021 RMK AO2
KTVI 200435Z AUTO 00000KT 10SM CLR 17/15 A3022 RMK AO2
KTVI 200415Z AUTO 00000KT 10SM CLR 17/15 A3022 RMK AO2
KTVI 200355Z AUTO 00000KT 10SM CLR 17/16 A3022 RMK AO2
KTVI 200335Z AUTO 00000KT 10SM CLR 17/14 A3022 RMK AO2
KTVI 200315Z AUTO 00000KT 10SM CLR 17/16 A3022 RMK AO2
KTVI 200255Z AUTO 00000KT 10SM CLR 17/15 A3021 RMK AO2
KTVI 200235Z AUTO 00000KT 10SM CLR 18/15 A3021 RMK AO2
KTVI 200215Z AUTO 00000KT 10SM CLR 18/15 A3020 RMK AO2
KTVI 200155Z AUTO 00000KT 10SM CLR 19/15 A3020 RMK AO2
KTVI 200135Z AUTO 00000KT 10SM CLR 19/15 A3019 RMK AO2
KTVI 200115Z AUTO 00000KT 10SM CLR 20/15 A3019 RMK AO2
KTVI 200055Z AUTO 03003KT 10SM CLR 21/14 A3019 RMK AO2
KTVI 200035Z AUTO 00000KT 10SM CLR 20/15 A3019 RMK AO2
KTVI 200015Z AUTO 00000KT 10SM CLR 22/13 A3019 RMK AO2
KTVI 192355Z AUTO 00000KT 10SM CLR 22/14 A3018 RMK AO2
KTVI 192335Z AUTO 05004KT 10SM CLR 23/13 A3017 RMK AO2
KTVI 192315Z AUTO 06004KT 10SM CLR 23/13 A3017 RMK AO2
KTVI 192255Z AUTO 06005KT 10SM CLR 25/13 A3016 RMK AO2
KTVI 192235Z AUTO 05007KT 10SM CLR 26/13 A3016 RMK AO2
KTVI 192215Z AUTO 06007KT 10SM CLR 27/12 A3016 RMK AO2
KTVI 192155Z AUTO 07008KT 10SM CLR 27/12 A3016 RMK AO2
KTVI 192135Z AUTO 07010KT 10SM CLR 27/12 A3015 RMK AO2
KTVI 192115Z AUTO 06010G14KT 10SM CLR 28/12 A3015 RMK AO2
KTVI 192055Z AUTO 06009KT 10SM CLR 28/12 A3015 RMK AO2
KTVI 192035Z AUTO 10008KT 10SM CLR 28/12 A3016 RMK AO2
KTVI 192015Z AUTO 07008KT 10SM CLR 28/12 A3017 RMK AO2
KTVI 191955Z AUTO 06009G14KT 10SM CLR 28/12 A3017 RMK AO2
KTVI 191935Z AUTO 07011G15KT 10SM CLR 28/12 A3017 RMK AO2
KTVI 191915Z AUTO 07010G14KT 10SM CLR 28/12 A3018 RMK AO2
KTVI 191855Z AUTO 06010G16KT 10SM CLR 27/13 A3018 RMK AO2
KTVI 191835Z AUTO 04011G14KT 10SM CLR 27/13 A3019 RMK AO2
KTVI 191815Z AUTO 09008G15KT 10SM CLR 27/13 A3020 RMK AO2
KTVI 191755Z AUTO 06010KT 10SM CLR 27/13 A3022 RMK AO2
KTVI 191735Z AUTO 05012G17KT 10SM CLR 27/13 A3022 RMK AO2
KTVI 191715Z AUTO 04009G18KT 10SM CLR 26/13 A3023 RMK AO2
KTVI 191655Z AUTO 07012G19KT 10SM CLR 26/13 A3024 RMK AO2
KTVI 191635Z AUTO 08011G14KT 10SM CLR 26/13 A3025 RMK AO2
KTVI 191615Z AUTO 05011KT 10SM CLR 25/13 A3026 RMK AO2
KTVI 191555Z AUTO 07009G14KT 10SM CLR 25/13 A3026 RMK AO2
KTVI 191535Z AUTO 05007G15KT 10SM CLR 23/13 A3026 RMK AO2
KTVI 191515Z AUTO 07008KT 10SM CLR 23/13 A3026 RMK AO2
KTVI 191455Z AUTO 08009KT 10SM CLR 22/13 A3026 RMK AO2
KTVI 191435Z AUTO 08009KT 10SM CLR 21/14 A3026 RMK AO2
KTVI 191415Z AUTO 07010KT 10SM CLR 20/15 A3025 RMK AO2
KTVI 191355Z AUTO 07007KT 10SM CLR 19/15 A3025 RMK AO2
KTVI 191335Z AUTO 06007KT 10SM CLR 18/15 A3024 RMK AO2
KTVI 191315Z AUTO 06007KT 10SM CLR 17/15 A3023 RMK AO2